Time;durP1;ratioP1;P1;durP2;ratioP2;P2;SDS_P1;SDS_P2;PMS_P1;PMS_P2;Temp;Humidity;BMP_temperature;BMP_pressure;BME280_temperature;BME280_humidity;BME280_pressure;Samples;Min_cycle;Max_cycle;Signal;HPM_P1;HPM_P2
2023/04/18 00:00:14;;;;;;;11.60;10.40;;;;;;;;;;4888880;28;99512;-78
2023/04/18 00:02:42;;;;;;;18.83;13.85;;;;;;;;;;4889416;28;99847;-76
2023/04/18 00:05:11;;;;;;;20.58;15.10;;;;;;;;;;4888786;28;100019;-76
2023/04/18 00:07:37;;;;;;;11.98;10.40;;;;;;;;;;4891647;28;99339;-75
2023/04/18 00:10:04;;;;;;;19.63;15.23;;;;;;;;;;4888471;28;102322;-76
2023/04/18 00:12:33;;;;;;;16.80;13.40;;;;;;;;;;4887863;28;100563;-75
2023/04/18 00:14:59;;;;;;;22.02;14.32;;;;;;;;;;4889101;28;99052;-76
2023/04/18 00:17:27;;;;;;;24.73;13.48;;;;;;;;;;4887882;28;100559;-76
2023/04/18 00:19:55;;;;;;;19.85;13.80;;;;;;;;;;4889080;28;100462;-75
2023/04/18 00:22:21;;;;;;;15.80;12.23;;;;;;;;;;4888290;28;100050;-75
2023/04/18 00:24:48;;;;;;;16.02;11.10;;;;;;;;;;4888214;28;100380;-75
2023/04/18 00:27:16;;;;;;;24.13;12.13;;;;;;;;;;4888832;28;100511;-75
2023/04/18 00:29:43;;;;;;;15.80;10.50;;;;;;;;;;4890748;28;102370;-77
2023/04/18 00:32:09;;;;;;;19.48;11.52;;;;;;;;;;4886859;28;100847;-75
2023/04/18 00:34:36;;;;;;;18.17;11.77;;;;;;;;;;4886922;28;101397;-75
2023/04/18 00:37:02;;;;;;;16.27;11.60;;;;;;;;;;4887765;28;99294;-75
2023/04/18 00:39:29;;;;;;;16.08;12.52;;;;;;;;;;4885987;28;99457;-75
2023/04/18 00:41:56;;;;;;;17.80;11.95;;;;;;;;;;4887230;28;99361;-75
2023/04/18 00:44:22;;;;;;;15.30;10.43;;;;;;;;;;4888714;28;98836;-78
2023/04/18 00:46:48;;;;;;;17.88;11.98;;;;;;;;;;4887703;28;99227;-75
2023/04/18 00:49:15;;;;;;;15.13;12.25;;;;;;;;;;4888756;28;99872;-76
2023/04/18 00:51:41;;;;;;;17.83;11.82;;;;;;;;;;4891249;28;98933;-75
2023/04/18 00:54:08;;;;;;;10.95;9.48;;;;;;;;;;4886745;28;102118;-75
2023/04/18 00:56:35;;;;;;;14.05;10.75;;;;;;;;;;4890281;28;98514;-75
2023/04/18 00:59:01;;;;;;;11.48;8.45;;;;;;;;;;4890972;28;99457;-75
2023/04/18 01:01:28;;;;;;;13.70;9.35;;;;;;;;;;4888739;28;102310;-75
2023/04/18 01:03:54;;;;;;;10.93;9.65;;;;;;;;;;4888976;28;100831;-75
2023/04/18 01:06:22;;;;;;;12.05;9.88;;;;;;;;;;4887904;28;99632;-77
2023/04/18 01:08:48;;;;;;;17.40;10.30;;;;;;;;;;4888684;28;99081;-75
2023/04/18 01:11:16;;;;;;;10.18;8.55;;;;;;;;;;4888185;28;99884;-78
2023/04/18 01:13:59;;;;;;;10.77;9.68;;;;;;;;;;4905428;28;100666;-76
2023/04/18 01:16:26;;;;;;;10.90;9.65;;;;;;;;;;4888236;28;100268;-76
2023/04/18 01:18:53;;;;;;;11.15;9.35;;;;;;;;;;4887293;28;101123;-76
2023/04/18 01:21:20;;;;;;;11.73;8.18;;;;;;;;;;4887636;28;100041;-76
2023/04/18 01:23:47;;;;;;;11.40;8.18;;;;;;;;;;4888613;28;99943;-76
2023/04/18 01:26:13;;;;;;;11.50;8.65;;;;;;;;;;4879110;28;102460;-76
2023/04/18 01:28:40;;;;;;;11.60;8.75;;;;;;;;;;4887723;28;100268;-76
2023/04/18 01:31:06;;;;;;;12.98;8.48;;;;;;;;;;4888040;28;98987;-76
2023/04/18 01:33:35;;;;;;;15.88;8.80;;;;;;;;;;4888164;28;99564;-76
2023/04/18 01:36:01;;;;;;;15.45;8.43;;;;;;;;;;4892923;28;98796;-76
2023/04/18 01:38:29;;;;;;;10.50;8.60;;;;;;;;;;4887820;28;99688;-77
2023/04/18 01:40:55;;;;;;;14.40;8.05;;;;;;;;;;4887976;28;99953;-76
2023/04/18 01:43:22;;;;;;;10.38;8.10;;;;;;;;;;4886102;28;100044;-77
2023/04/18 01:45:48;;;;;;;8.07;7.10;;;;;;;;;;4887854;28;99827;-77
2023/04/18 01:48:14;;;;;;;10.85;8.77;;;;;;;;;;4886510;28;99257;-76
2023/04/18 01:50:41;;;;;;;8.95;8.15;;;;;;;;;;4887109;28;99395;-76
2023/04/18 01:53:09;;;;;;;12.23;10.65;;;;;;;;;;4887347;28;99162;-76
2023/04/18 01:55:35;;;;;;;10.48;8.68;;;;;;;;;;4886698;28;99980;-76
2023/04/18 01:58:01;;;;;;;10.95;7.80;;;;;;;;;;4891417;28;98717;-77
2023/04/18 02:00:28;;;;;;;8.20;7.50;;;;;;;;;;4885871;28;98915;-76
2023/04/18 02:02:56;;;;;;;12.38;7.95;;;;;;;;;;4887627;28;98570;-76
2023/04/18 02:05:24;;;;;;;11.45;7.72;;;;;;;;;;4890166;28;99097;-76
2023/04/18 02:07:51;;;;;;;9.52;7.78;;;;;;;;;;4891420;28;100449;-77
2023/04/18 02:10:18;;;;;;;10.73;8.05;;;;;;;;;;4890223;28;98676;-77
2023/04/18 02:12:44;;;;;;;8.10;7.30;;;;;;;;;;4890813;28;99298;-76
2023/04/18 02:15:10;;;;;;;10.32;7.38;;;;;;;;;;4905257;28;101779;-77
2023/04/18 02:17:37;;;;;;;9.07;6.93;;;;;;;;;;4891754;28;103038;-77
2023/04/18 02:20:03;;;;;;;8.45;7.65;;;;;;;;;;4891283;28;98907;-77
2023/04/18 02:22:32;;;;;;;7.68;6.95;;;;;;;;;;4904784;28;99005;-77
2023/04/18 02:24:59;;;;;;;12.43;8.38;;;;;;;;;;4890436;28;99107;-76
2023/04/18 02:27:25;;;;;;;8.55;7.32;;;;;;;;;;4888711;28;101180;-76
2023/04/18 02:29:55;;;;;;;8.10;6.97;;;;;;;;;;4905503;28;101632;-76
2023/04/18 02:32:21;;;;;;;9.23;8.05;;;;;;;;;;4888823;28;100547;-76
2023/04/18 02:34:48;;;;;;;13.95;7.90;;;;;;;;;;4889600;28;101021;-77
2023/04/18 02:37:14;;;;;;;9.90;8.88;;;;;;;;;;4891149;28;99112;-76
2023/04/18 02:39:41;;;;;;;9.98;7.88;;;;;;;;;;4892715;28;100649;-76
2023/04/18 02:42:07;;;;;;;9.50;8.43;;;;;;;;;;4890532;28;99664;-76
2023/04/18 02:44:34;;;;;;;10.60;7.15;;;;;;;;;;4890449;28;99163;-76
2023/04/18 02:47:00;;;;;;;13.50;9.68;;;;;;;;;;4889173;28;101643;-76
2023/04/18 02:49:27;;;;;;;11.65;8.25;;;;;;;;;;4890090;28;99057;-77
2023/04/18 02:51:54;;;;;;;11.43;8.52;;;;;;;;;;4887897;28;102192;-77
2023/04/18 02:54:21;;;;;;;10.88;8.48;;;;;;;;;;4888025;28;101552;-77
2023/04/18 02:57:02;;;;;;;10.43;7.55;;;;;;;;;;4889746;28;101322;-77
2023/04/18 02:59:37;;;;;;;14.82;8.90;;;;;;;;;;4886431;28;98994;-76
2023/04/18 03:02:16;;;;;;;17.55;9.23;;;;;;;;;;4890540;28;100416;-76
2023/04/18 03:04:49;;;;;;;9.98;8.80;;;;;;;;;;4902869;28;100951;-76
2023/04/18 03:07:15;;;;;;;11.65;7.00;;;;;;;;;;4904026;28;101937;-76
2023/04/18 03:09:42;;;;;;;9.55;8.55;;;;;;;;;;4890251;28;98828;-77
2023/04/18 03:12:20;;;;;;;9.75;8.50;;;;;;;;;;4888503;28;99629;-76
2023/04/18 03:14:46;;;;;;;13.15;9.10;;;;;;;;;;4887735;28;101813;-76
2023/04/18 03:17:13;;;;;;;15.63;7.65;;;;;;;;;;4887046;28;101454;-77
2023/04/18 03:19:45;;;;;;;13.48;8.13;;;;;;;;;;4885027;28;100422;-77
2023/04/18 03:22:14;;;;;;;18.45;8.02;;;;;;;;;;4889393;28;100980;-76
2023/04/18 03:24:52;;;;;;;7.78;7.07;;;;;;;;;;4891987;28;100541;-77
2023/04/18 03:27:21;;;;;;;10.48;8.77;;;;;;;;;;4896438;28;100169;-77
2023/04/18 03:29:48;;;;;;;13.25;9.02;;;;;;;;;;4889909;28;99239;-76
2023/04/18 03:32:16;;;;;;;14.13;9.55;;;;;;;;;;4888532;28;101400;-76
2023/04/18 03:34:42;;;;;;;15.98;10.10;;;;;;;;;;4889154;28;99912;-76
2023/04/18 03:37:09;;;;;;;15.48;9.88;;;;;;;;;;4889308;28;100290;-77
2023/04/18 03:39:44;;;;;;;10.40;9.35;;;;;;;;;;4888522;28;99897;-75
2023/04/18 03:42:11;;;;;;;12.73;8.40;;;;;;;;;;4887661;28;99146;-77
2023/04/18 03:44:39;;;;;;;9.60;6.63;;;;;;;;;;4888329;28;98935;-77
2023/04/18 03:47:06;;;;;;;14.75;10.43;;;;;;;;;;4892026;28;99493;-77
2023/04/18 03:49:35;;;;;;;12.45;9.95;;;;;;;;;;4884600;28;98984;-77
2023/04/18 03:52:02;;;;;;;18.38;9.00;;;;;;;;;;4901966;28;101731;-76
2023/04/18 03:54:28;;;;;;;8.43;6.80;;;;;;;;;;4888191;28;99710;-77
2023/04/18 03:56:56;;;;;;;13.52;9.50;;;;;;;;;;4887477;28;102209;-77
2023/04/18 03:59:23;;;;;;;16.65;8.10;;;;;;;;;;4887735;28;101081;-76
2023/04/18 04:01:49;;;;;;;13.73;9.80;;;;;;;;;;4888451;28;98991;-76
2023/04/18 04:04:17;;;;;;;12.63;9.45;;;;;;;;;;4887119;28;99184;-76
2023/04/18 04:06:44;;;;;;;11.35;8.40;;;;;;;;;;4888249;28;100231;-76
2023/04/18 04:09:10;;;;;;;14.25;9.85;;;;;;;;;;4891898;28;98581;-76
2023/04/18 04:11:38;;;;;;;16.13;10.10;;;;;;;;;;4887967;28;100645;-76
2023/04/18 04:14:07;;;;;;;9.35;7.38;;;;;;;;;;4888069;28;99291;-76
2023/04/18 04:16:39;;;;;;;15.50;10.37;;;;;;;;;;4888331;28;99972;-76
2023/04/18 04:19:07;;;;;;;11.70;8.98;;;;;;;;;;4887663;28;100051;-76
2023/04/18 04:21:41;;;;;;;12.85;10.80;;;;;;;;;;4903798;28;100082;-76
2023/04/18 04:24:12;;;;;;;10.98;8.05;;;;;;;;;;4886698;28;99944;-77
2023/04/18 04:26:43;;;;;;;23.43;9.03;;;;;;;;;;4886620;28;101341;-77
2023/04/18 04:29:14;;;;;;;12.70;9.68;;;;;;;;;;4890692;28;101369;-76
2023/04/18 04:31:42;;;;;;;13.60;8.73;;;;;;;;;;4886589;28;102133;-76
2023/04/18 04:34:09;;;;;;;14.40;9.93;;;;;;;;;;4888980;28;99834;-76
2023/04/18 04:36:36;;;;;;;16.23;10.52;;;;;;;;;;4887627;28;101267;-76
2023/04/18 04:39:04;;;;;;;11.60;10.30;;;;;;;;;;4887003;28;101560;-76
2023/04/18 04:41:43;;;;;;;11.48;8.93;;;;;;;;;;4887542;28;100270;-76
2023/04/18 04:44:09;;;;;;;13.75;9.68;;;;;;;;;;4887792;28;99309;-77
2023/04/18 04:46:39;;;;;;;23.92;11.15;;;;;;;;;;4887532;28;100103;-77
2023/04/18 04:49:12;;;;;;;15.05;9.98;;;;;;;;;;4903344;28;98688;-76
2023/04/18 04:51:41;;;;;;;12.48;10.23;;;;;;;;;;4890331;28;98964;-76
2023/04/18 04:54:09;;;;;;;16.33;10.30;;;;;;;;;;4886764;28;102207;-76
2023/04/18 04:56:35;;;;;;;12.63;10.63;;;;;;;;;;4886799;28;101883;-76
2023/04/18 04:59:02;;;;;;;14.80;11.77;;;;;;;;;;4886494;28;99303;-76
2023/04/18 05:01:33;;;;;;;17.85;10.35;;;;;;;;;;4887478;28;99011;-76
2023/04/18 05:03:59;;;;;;;10.38;9.35;;;;;;;;;;4888251;28;99251;-76
2023/04/18 05:06:26;;;;;;;14.93;10.38;;;;;;;;;;4887789;28;99807;-76
2023/04/18 05:08:53;;;;;;;12.68;11.00;;;;;;;;;;4887943;28;99996;-77
2023/04/18 05:11:20;;;;;;;11.50;9.52;;;;;;;;;;4888677;28;99669;-76
2023/04/18 05:13:46;;;;;;;13.88;11.18;;;;;;;;;;4891198;28;100242;-76
2023/04/18 05:16:12;;;;;;;15.75;10.73;;;;;;;;;;4888445;28;99994;-76
2023/04/18 05:18:40;;;;;;;14.00;9.73;;;;;;;;;;4888125;28;99360;-76
2023/04/18 05:21:06;;;;;;;11.63;10.45;;;;;;;;;;4887051;28;99123;-76
2023/04/18 05:23:35;;;;;;;16.85;10.75;;;;;;;;;;4887674;28;98973;-76
2023/04/18 05:26:02;;;;;;;15.77;10.68;;;;;;;;;;4888307;28;98787;-76
2023/04/18 05:28:29;;;;;;;12.10;10.75;;;;;;;;;;4887196;28;99977;-76
2023/04/18 05:31:01;;;;;;;12.73;11.27;;;;;;;;;;4886358;28;100039;-76
2023/04/18 05:33:28;;;;;;;14.65;11.27;;;;;;;;;;4886766;28;100817;-76
2023/04/18 05:35:55;;;;;;;9.48;7.97;;;;;;;;;;4891146;28;99965;-76
2023/04/18 05:38:21;;;;;;;12.90;9.63;;;;;;;;;;4888307;28;99539;-76
2023/04/18 05:40:50;;;;;;;13.38;11.43;;;;;;;;;;4887005;28;99228;-75
2023/04/18 05:43:18;;;;;;;13.82;11.32;;;;;;;;;;4887581;28;99975;-76
2023/04/18 05:45:44;;;;;;;11.73;10.30;;;;;;;;;;4887992;28;100259;-76
2023/04/18 05:48:11;;;;;;;13.93;11.63;;;;;;;;;;4886965;28;99839;-76
2023/04/18 05:50:37;;;;;;;13.43;9.32;;;;;;;;;;4886770;28;99088;-76
2023/04/18 05:53:04;;;;;;;13.80;11.15;;;;;;;;;;4883729;28;99470;-76
2023/04/18 05:55:30;;;;;;;11.52;10.43;;;;;;;;;;4886593;28;99085;-76
2023/04/18 05:57:57;;;;;;;17.35;10.93;;;;;;;;;;4890429;28;101103;-76
2023/04/18 06:00:23;;;;;;;16.67;11.20;;;;;;;;;;4887313;28;99965;-75
2023/04/18 06:02:50;;;;;;;13.98;10.40;;;;;;;;;;4886848;28;100088;-76
2023/04/18 06:05:17;;;;;;;11.82;8.80;;;;;;;;;;4887461;28;100463;-74
2023/04/18 06:07:43;;;;;;;16.98;10.88;;;;;;;;;;4888003;28;99950;-77
2023/04/18 06:10:12;;;;;;;14.05;10.55;;;;;;;;;;4886649;28;99978;-78
2023/04/18 06:12:38;;;;;;;15.73;10.73;;;;;;;;;;4887265;28;99974;-77
2023/04/18 06:15:05;;;;;;;12.52;10.60;;;;;;;;;;4888123;28;99148;-77
2023/04/18 06:17:33;;;;;;;12.50;10.50;;;;;;;;;;4889469;28;98601;-77
2023/04/18 06:20:00;;;;;;;12.50;11.23;;;;;;;;;;4887824;28;99861;-77
2023/04/18 06:22:27;;;;;;;12.50;9.88;;;;;;;;;;4886121;28;99319;-77
2023/04/18 06:24:54;;;;;;;18.77;10.68;;;;;;;;;;4880682;28;100426;-77
2023/04/18 06:27:22;;;;;;;12.68;9.93;;;;;;;;;;4887190;28;99950;-77
2023/04/18 06:29:57;;;;;;;13.10;10.68;;;;;;;;;;4888924;28;98901;-75
2023/04/18 06:32:23;;;;;;;9.50;8.38;;;;;;;;;;4887039;28;99341;-76
2023/04/18 06:34:51;;;;;;;11.48;9.60;;;;;;;;;;4887492;28;100435;-77
2023/04/18 06:37:18;;;;;;;11.35;9.20;;;;;;;;;;4886460;28;100143;-78
2023/04/18 06:39:44;;;;;;;16.73;9.93;;;;;;;;;;4891294;28;99446;-78
2023/04/18 06:42:12;;;;;;;13.38;10.43;;;;;;;;;;4888145;28;99236;-78
2023/04/18 06:44:43;;;;;;;10.18;9.07;;;;;;;;;;4887999;28;99243;-78
2023/04/18 06:47:09;;;;;;;11.43;7.22;;;;;;;;;;4886949;28;99964;-79
2023/04/18 06:49:37;;;;;;;11.38;8.82;;;;;;;;;;4889726;28;99751;-77
2023/04/18 06:52:03;;;;;;;14.43;11.35;;;;;;;;;;4897037;28;100442;-77
2023/04/18 06:54:30;;;;;;;13.35;10.13;;;;;;;;;;4896455;28;99938;-77
2023/04/18 06:56:56;;;;;;;10.55;9.45;;;;;;;;;;4896898;28;99981;-77
2023/04/18 06:59:23;;;;;;;10.52;9.07;;;;;;;;;;4890113;28;100208;-78
2023/04/18 07:01:50;;;;;;;11.85;8.88;;;;;;;;;;4904785;28;100225;-77
2023/04/18 07:04:16;;;;;;;16.30;9.68;;;;;;;;;;4896491;28;98964;-79
2023/04/18 07:06:43;;;;;;;14.65;8.07;;;;;;;;;;4890110;28;100196;-78
2023/04/18 07:09:10;;;;;;;20.88;9.80;;;;;;;;;;4890587;28;100182;-79
2023/04/18 07:11:37;;;;;;;10.57;9.48;;;;;;;;;;4888722;28;100230;-77
2023/04/18 07:14:04;;;;;;;7.93;7.13;;;;;;;;;;4887009;28;101781;-78
2023/04/18 07:16:30;;;;;;;11.48;9.15;;;;;;;;;;4887789;28;99910;-77
2023/04/18 07:18:57;;;;;;;9.90;8.85;;;;;;;;;;4888647;28;100242;-77
2023/04/18 07:21:23;;;;;;;10.45;7.97;;;;;;;;;;4889817;28;100519;-77
2023/04/18 07:23:49;;;;;;;10.02;8.63;;;;;;;;;;4893230;28;99244;-78
2023/04/18 07:26:16;;;;;;;23.80;8.23;;;;;;;;;;4889563;28;99139;-79
2023/04/18 07:28:42;;;;;;;9.60;8.70;;;;;;;;;;4890476;28;100224;-78
2023/04/18 07:31:10;;;;;;;7.82;7.05;;;;;;;;;;4888084;28;100238;-78
2023/04/18 07:33:37;;;;;;;11.30;8.20;;;;;;;;;;4884347;28;99982;-78
2023/04/18 07:36:04;;;;;;;11.27;8.23;;;;;;;;;;4879175;28;100645;-78
2023/04/18 07:38:34;;;;;;;8.98;8.00;;;;;;;;;;4888697;28;99549;-77
2023/04/18 07:41:01;;;;;;;10.60;7.18;;;;;;;;;;4884588;28;101430;-78
2023/04/18 07:43:27;;;;;;;8.82;6.78;;;;;;;;;;4879098;28;99998;-78
2023/04/18 07:45:54;;;;;;;9.20;7.45;;;;;;;;;;4892737;28;100386;-78
2023/04/18 07:48:21;;;;;;;10.93;7.65;;;;;;;;;;4887280;28;99165;-78
2023/04/18 07:50:48;;;;;;;8.75;7.82;;;;;;;;;;4886461;28;99525;-76
2023/04/18 07:53:14;;;;;;;11.40;7.50;;;;;;;;;;4888203;28;100508;-77
2023/04/18 07:55:42;;;;;;;12.68;8.07;;;;;;;;;;4886732;28;99734;-79
2023/04/18 07:58:08;;;;;;;18.77;7.30;;;;;;;;;;4885802;28;100878;-79
2023/04/18 08:00:35;;;;;;;8.85;6.50;;;;;;;;;;4885470;28;100922;-78
2023/04/18 08:03:02;;;;;;;11.95;6.82;;;;;;;;;;4886675;28;100665;-78
2023/04/18 08:05:29;;;;;;;15.40;7.70;;;;;;;;;;4888637;28;100661;-77
2023/04/18 08:07:55;;;;;;;9.85;7.85;;;;;;;;;;4894753;28;99928;-78
2023/04/18 08:10:22;;;;;;;10.50;6.45;;;;;;;;;;4887991;28;99343;-77
2023/04/18 08:12:49;;;;;;;10.80;7.35;;;;;;;;;;4887566;28;99990;-79
2023/04/18 08:15:15;;;;;;;6.30;5.80;;;;;;;;;;4886769;28;99201;-77
2023/04/18 08:17:43;;;;;;;6.22;5.72;;;;;;;;;;4885449;28;100428;-77
2023/04/18 08:20:11;;;;;;;8.20;7.40;;;;;;;;;;4881150;28;99955;-77
2023/04/18 08:22:38;;;;;;;7.35;6.70;;;;;;;;;;4887050;28;99154;-77
2023/04/18 08:25:22;;;;;;;6.50;5.43;;;;;;;;;;4888498;28;100041;-77
2023/04/18 08:27:48;;;;;;;7.50;5.72;;;;;;;;;;4892340;28;99251;-76
2023/04/18 08:30:15;;;;;;;6.10;5.47;;;;;;;;;;4887087;28;100591;-78
2023/04/18 08:32:41;;;;;;;16.65;6.35;;;;;;;;;;4888003;28;99210;-77
2023/04/18 08:35:08;;;;;;;7.75;4.82;;;;;;;;;;4887809;28;99928;-77
2023/04/18 08:37:34;;;;;;;6.20;5.60;;;;;;;;;;4886242;28;99929;-77
2023/04/18 08:40:02;;;;;;;6.07;4.97;;;;;;;;;;4886635;28;100600;-77
2023/04/18 08:42:29;;;;;;;9.15;6.10;;;;;;;;;;4902945;28;99110;-80
2023/04/18 08:44:57;;;;;;;7.57;5.85;;;;;;;;;;4888343;28;100233;-78
2023/04/18 08:47:24;;;;;;;12.48;6.03;;;;;;;;;;4886865;28;99786;-79
2023/04/18 08:49:52;;;;;;;8.55;5.82;;;;;;;;;;4890580;28;100465;-79
2023/04/18 08:52:20;;;;;;;7.78;6.68;;;;;;;;;;4887391;28;99988;-79
2023/04/18 08:54:47;;;;;;;6.50;5.95;;;;;;;;;;4888617;28;99950;-79
2023/04/18 08:57:25;;;;;;;6.72;6.13;;;;;;;;;;4888001;28;99909;-79
2023/04/18 08:59:52;;;;;;;12.60;6.35;;;;;;;;;;4884354;28;99207;-79
2023/04/18 09:02:22;;;;;;;6.80;6.20;;;;;;;;;;4888409;28;99335;-79
2023/04/18 09:04:52;;;;;;;6.40;5.80;;;;;;;;;;4885461;28;99842;-78
2023/04/18 09:07:19;;;;;;;6.47;5.97;;;;;;;;;;4886207;28;98886;-79
2023/04/18 09:09:47;;;;;;;6.90;5.95;;;;;;;;;;4885217;28;99232;-79
2023/04/18 09:12:16;;;;;;;10.82;7.15;;;;;;;;;;4889643;28;100089;-79
2023/04/18 09:14:45;;;;;;;11.75;7.20;;;;;;;;;;4886362;28;100395;-79
2023/04/18 09:17:13;;;;;;;12.13;7.13;;;;;;;;;;4888390;28;99697;-78
2023/04/18 09:19:45;;;;;;;8.13;7.32;;;;;;;;;;4882127;28;100372;-79
2023/04/18 09:22:12;;;;;;;6.63;6.10;;;;;;;;;;4881117;28;99316;-79
2023/04/18 09:24:38;;;;;;;7.35;6.65;;;;;;;;;;4883035;28;99392;-75
2023/04/18 09:27:10;;;;;;;5.82;5.32;;;;;;;;;;4879820;28;100078;-77
2023/04/18 09:29:41;;;;;;;7.40;6.63;;;;;;;;;;4885950;28;99818;-80
2023/04/18 09:32:07;;;;;;;5.53;5.03;;;;;;;;;;4889359;28;99678;-78
2023/04/18 09:34:40;;;;;;;6.00;5.20;;;;;;;;;;4889685;28;100398;-78
2023/04/18 09:37:08;;;;;;;5.47;4.80;;;;;;;;;;4884726;28;100301;-77
2023/04/18 09:39:35;;;;;;;8.50;5.13;;;;;;;;;;4881412;28;100148;-78
2023/04/18 09:42:02;;;;;;;8.88;5.40;;;;;;;;;;4878571;28;101048;-78
2023/04/18 09:44:28;;;;;;;6.78;6.10;;;;;;;;;;4880332;28;100191;-78
2023/04/18 09:46:55;;;;;;;12.15;6.38;;;;;;;;;;4885980;28;100160;-78
2023/04/18 09:49:21;;;;;;;6.22;5.72;;;;;;;;;;4879614;28;99516;-78
2023/04/18 09:51:50;;;;;;;6.10;5.43;;;;;;;;;;4876647;28;100455;-78
2023/04/18 09:54:17;;;;;;;5.82;5.15;;;;;;;;;;4879865;28;100203;-78
2023/04/18 09:56:44;;;;;;;6.20;5.70;;;;;;;;;;4889254;28;99296;-78
2023/04/18 09:59:11;;;;;;;6.07;5.57;;;;;;;;;;4878830;28;100364;-78
2023/04/18 10:01:39;;;;;;;6.80;6.00;;;;;;;;;;4885117;28;99776;-78
2023/04/18 10:04:06;;;;;;;6.68;5.82;;;;;;;;;;4885603;28;100746;-78
2023/04/18 10:06:34;;;;;;;6.53;5.80;;;;;;;;;;4885348;28;99896;-78
2023/04/18 10:09:04;;;;;;;5.97;5.47;;;;;;;;;;4885681;28;99823;-78
2023/04/18 10:11:31;;;;;;;8.10;7.32;;;;;;;;;;4900476;28;99579;-77
2023/04/18 10:14:00;;;;;;;7.90;7.20;;;;;;;;;;4887318;28;99967;-78
2023/04/18 10:16:28;;;;;;;13.27;6.60;;;;;;;;;;4885806;28;100145;-78
2023/04/18 10:18:55;;;;;;;6.88;6.03;;;;;;;;;;4890574;28;100425;-77
2023/04/18 10:21:21;;;;;;;8.75;6.40;;;;;;;;;;4886817;28;100432;-78
2023/04/18 10:23:49;;;;;;;8.75;8.05;;;;;;;;;;4882926;28;99700;-77
2023/04/18 10:26:15;;;;;;;7.88;7.07;;;;;;;;;;4889006;28;100010;-78
2023/04/18 10:28:49;;;;;;;9.07;7.20;;;;;;;;;;4889708;28;99876;-78
2023/04/18 10:31:16;;;;;;;7.72;6.82;;;;;;;;;;4886310;28;100535;-76
2023/04/18 10:33:50;;;;;;;5.53;5.00;;;;;;;;;;4891654;28;99949;-76
2023/04/18 10:36:31;;;;;;;5.75;5.35;;;;;;;;;;4878058;28;100228;-77
2023/04/18 10:39:20;;;;;;;5.97;5.40;;;;;;;;;;4888421;28;100352;-77
2023/04/18 10:41:47;;;;;;;6.00;5.50;;;;;;;;;;4873396;28;99917;-76
2023/04/18 10:44:21;;;;;;;6.90;6.30;;;;;;;;;;4886020;28;99195;-76
2023/04/18 10:46:50;;;;;;;6.20;5.70;;;;;;;;;;4891519;28;98929;-76
2023/04/18 10:49:20;;;;;;;6.70;5.75;;;;;;;;;;4889874;28;98557;-77
2023/04/18 10:51:50;;;;;;;5.22;4.75;;;;;;;;;;4889487;28;99370;-77
2023/04/18 10:54:36;;;;;;;5.65;4.72;;;;;;;;;;4889057;28;99603;-78
2023/04/18 10:57:03;;;;;;;5.93;4.90;;;;;;;;;;4889454;28;100010;-77
2023/04/18 10:59:30;;;;;;;4.85;4.45;;;;;;;;;;4882231;28;100603;-78
2023/04/18 11:02:16;;;;;;;6.00;5.47;;;;;;;;;;4892094;28;100185;-78
2023/04/18 11:04:47;;;;;;;6.85;5.70;;;;;;;;;;4883663;28;99429;-77
2023/04/18 11:07:13;;;;;;;8.50;7.55;;;;;;;;;;4883989;28;99169;-78
2023/04/18 11:09:40;;;;;;;7.45;6.80;;;;;;;;;;4889887;28;100082;-77
2023/04/18 11:12:08;;;;;;;7.40;6.68;;;;;;;;;;4890328;28;98575;-77
2023/04/18 11:14:44;;;;;;;7.05;6.43;;;;;;;;;;4886754;28;99616;-77
2023/04/18 11:17:22;;;;;;;6.25;5.65;;;;;;;;;;4886435;28;100096;-77
2023/04/18 11:19:49;;;;;;;7.18;6.47;;;;;;;;;;4883023;28;100952;-77
2023/04/18 11:22:16;;;;;;;10.95;5.95;;;;;;;;;;4879055;28;100411;-75
2023/04/18 11:24:42;;;;;;;7.60;7.00;;;;;;;;;;4885197;28;100390;-75
2023/04/18 11:27:10;;;;;;;6.85;6.30;;;;;;;;;;4889135;28;99526;-75
2023/04/18 11:29:36;;;;;;;6.32;5.38;;;;;;;;;;4890439;28;100427;-75
2023/04/18 11:32:06;;;;;;;7.30;6.60;;;;;;;;;;4891418;28;99419;-75
2023/04/18 11:34:34;;;;;;;7.70;7.00;;;;;;;;;;4890619;28;100077;-76
2023/04/18 11:37:04;;;;;;;7.65;6.97;;;;;;;;;;4890896;28;100191;-78
2023/04/18 11:39:35;;;;;;;8.65;7.82;;;;;;;;;;4876972;28;100251;-74
2023/04/18 11:42:01;;;;;;;10.18;8.27;;;;;;;;;;4886425;28;100066;-75
2023/04/18 11:44:27;;;;;;;12.13;7.85;;;;;;;;;;4885598;28;99451;-76
2023/04/18 11:46:54;;;;;;;9.63;7.88;;;;;;;;;;4889380;28;100256;-77
2023/04/18 11:49:30;;;;;;;8.57;7.80;;;;;;;;;;4889390;28;99241;-76
2023/04/18 11:51:57;;;;;;;8.10;7.30;;;;;;;;;;4888637;28;100402;-78
2023/04/18 11:54:43;;;;;;;9.25;7.30;;;;;;;;;;4884112;28;101204;-77
2023/04/18 11:57:19;;;;;;;8.98;8.07;;;;;;;;;;4886954;28;100940;-77
2023/04/18 11:59:47;;;;;;;7.65;6.93;;;;;;;;;;4885066;28;99409;-77
2023/04/18 12:02:13;;;;;;;8.32;7.55;;;;;;;;;;4887481;28;100427;-77
2023/04/18 12:04:52;;;;;;;8.52;7.72;;;;;;;;;;4887802;28;99726;-77
2023/04/18 12:07:29;;;;;;;8.43;7.70;;;;;;;;;;4880554;28;100763;-76
2023/04/18 12:09:56;;;;;;;11.85;7.82;;;;;;;;;;4891424;28;100860;-78
2023/04/18 12:12:22;;;;;;;9.20;8.40;;;;;;;;;;4883075;28;99772;-78
2023/04/18 12:14:56;;;;;;;9.15;8.25;;;;;;;;;;4888088;28;98761;-78
2023/04/18 12:17:24;;;;;;;8.75;7.95;;;;;;;;;;4888819;28;98744;-78
2023/04/18 12:19:52;;;;;;;8.48;7.70;;;;;;;;;;4888925;28;100481;-78
2023/04/18 12:22:19;;;;;;;9.25;7.35;;;;;;;;;;4886759;28;100266;-76
2023/04/18 12:24:45;;;;;;;8.77;7.97;;;;;;;;;;4888369;28;99088;-76
2023/04/18 12:27:11;;;;;;;8.88;8.05;;;;;;;;;;4881352;28;99090;-75
2023/04/18 12:29:38;;;;;;;8.15;7.45;;;;;;;;;;4887837;28;100248;-75
2023/04/18 12:32:05;;;;;;;8.27;7.57;;;;;;;;;;4890895;28;100372;-75
2023/04/18 12:34:31;;;;;;;8.82;7.78;;;;;;;;;;4888387;28;100062;-75
2023/04/18 12:36:57;;;;;;;9.68;8.88;;;;;;;;;;4886508;28;99720;-75
2023/04/18 12:39:24;;;;;;;8.88;8.15;;;;;;;;;;4887005;28;100702;-76
2023/04/18 12:41:51;;;;;;;9.25;8.35;;;;;;;;;;4888825;28;99028;-76
2023/04/18 12:44:17;;;;;;;10.63;7.38;;;;;;;;;;4887022;28;100031;-74
2023/04/18 12:46:43;;;;;;;9.88;8.98;;;;;;;;;;4887211;28;99471;-75
2023/04/18 12:49:10;;;;;;;10.07;9.18;;;;;;;;;;4887149;28;99561;-76
2023/04/18 12:51:36;;;;;;;17.23;9.48;;;;;;;;;;4891410;28;99917;-75
2023/04/18 12:54:03;;;;;;;8.13;6.70;;;;;;;;;;4882237;28;101607;-75
2023/04/18 12:56:29;;;;;;;9.93;8.98;;;;;;;;;;4883101;28;100171;-75
2023/04/18 12:58:55;;;;;;;12.30;9.52;;;;;;;;;;4883615;28;100555;-76
2023/04/18 13:01:22;;;;;;;10.73;9.52;;;;;;;;;;4881703;28;100003;-78
2023/04/18 13:03:48;;;;;;;11.40;10.23;;;;;;;;;;4887873;28;99763;-77
2023/04/18 13:06:29;;;;;;;11.32;8.38;;;;;;;;;;4880060;28;99423;-76
2023/04/18 13:08:56;;;;;;;8.43;7.72;;;;;;;;;;4888784;28;99222;-77
2023/04/18 13:11:27;;;;;;;10.95;9.52;;;;;;;;;;4885148;28;99278;-76
2023/04/18 13:13:53;;;;;;;12.90;10.48;;;;;;;;;;4891694;28;100553;-75
2023/04/18 13:16:20;;;;;;;11.93;9.60;;;;;;;;;;4888586;28;99545;-75
2023/04/18 13:18:46;;;;;;;12.23;10.63;;;;;;;;;;4887796;28;99402;-75
2023/04/18 13:21:12;;;;;;;11.45;10.35;;;;;;;;;;4888814;28;99955;-75
2023/04/18 13:23:39;;;;;;;10.85;9.75;;;;;;;;;;4886533;28;100031;-75
2023/04/18 13:26:07;;;;;;;14.10;10.13;;;;;;;;;;4887453;28;99964;-75
2023/04/18 13:28:33;;;;;;;10.25;9.20;;;;;;;;;;4885580;28;101390;-75
2023/04/18 13:31:00;;;;;;;14.88;10.77;;;;;;;;;;4884382;28;100332;-75
2023/04/18 13:33:26;;;;;;;13.00;11.52;;;;;;;;;;4887141;28;99300;-75
2023/04/18 13:35:53;;;;;;;12.80;11.55;;;;;;;;;;4889391;28;100454;-75
2023/04/18 13:38:19;;;;;;;14.50;10.80;;;;;;;;;;4884583;28;99510;-76
2023/04/18 13:40:46;;;;;;;11.00;9.88;;;;;;;;;;4887675;28;98920;-75
2023/04/18 13:43:14;;;;;;;13.65;11.15;;;;;;;;;;4886118;28;98783;-76
2023/04/18 13:45:40;;;;;;;9.93;8.93;;;;;;;;;;4884744;28;100160;-76
2023/04/18 13:48:07;;;;;;;16.42;10.98;;;;;;;;;;4884697;28;99916;-75
2023/04/18 13:50:33;;;;;;;11.70;10.52;;;;;;;;;;4887905;28;99818;-75
2023/04/18 13:52:59;;;;;;;9.90;8.90;;;;;;;;;;4884839;28;99305;-75
2023/04/18 13:55:26;;;;;;;12.93;9.88;;;;;;;;;;4886946;28;100467;-76
2023/04/18 13:57:53;;;;;;;8.80;7.90;;;;;;;;;;4890001;28;99868;-75
2023/04/18 14:00:19;;;;;;;10.55;9.00;;;;;;;;;;4887639;28;100373;-76
2023/04/18 14:02:45;;;;;;;9.93;9.02;;;;;;;;;;4891547;28;100307;-75
2023/04/18 14:05:12;;;;;;;11.20;9.63;;;;;;;;;;4892413;28;99444;-75
2023/04/18 14:07:39;;;;;;;9.68;8.93;;;;;;;;;;4891610;28;99067;-75
2023/04/18 14:10:06;;;;;;;10.57;9.55;;;;;;;;;;4910232;28;99939;-76
2023/04/18 14:12:32;;;;;;;14.43;10.45;;;;;;;;;;4906581;28;99279;-76
2023/04/18 14:14:59;;;;;;;10.13;9.23;;;;;;;;;;4903586;28;98872;-75
2023/04/18 14:17:25;;;;;;;11.15;9.00;;;;;;;;;;4909945;28;100059;-75
2023/04/18 14:19:52;;;;;;;11.10;10.00;;;;;;;;;;4907849;28;99131;-76
2023/04/18 14:22:20;;;;;;;9.93;8.98;;;;;;;;;;4907341;28;99741;-76
2023/04/18 14:24:47;;;;;;;15.70;10.45;;;;;;;;;;4896569;28;99233;-76
2023/04/18 14:27:14;;;;;;;11.52;10.27;;;;;;;;;;4892718;28;98962;-75
2023/04/18 14:29:40;;;;;;;11.32;9.93;;;;;;;;;;4890005;28;99057;-76